createdAt,value
2022-08-17T00:01:41.675Z,46.72
2022-08-17T00:04:22.491Z,33.55
2022-08-17T00:06:53.448Z,35.95
2022-08-17T00:09:22.895Z,33.58
2022-08-17T00:12:41.674Z,34.75
2022-08-17T00:14:43.735Z,31.85
2022-08-17T00:17:12.987Z,33.30
2022-08-17T00:19:42.361Z,37.15
2022-08-17T00:22:33.253Z,33.10
2022-08-17T00:25:00.809Z,32.97
2022-08-17T00:27:33.739Z,34.75
2022-08-17T00:30:03.120Z,35.42
2022-08-17T00:33:15.012Z,36.95
2022-08-17T00:35:29.719Z,29.67
2022-08-17T00:37:58.999Z,28.92
2022-08-17T00:40:44.630Z,30.58
2022-08-17T00:43:22.522Z,34.30
2022-08-17T00:45:51.938Z,28.80
2022-08-17T00:48:27.218Z,30.27
2022-08-17T00:51:06.565Z,29.00
2022-08-17T00:53:42.012Z,30.25
2022-08-17T00:56:18.729Z,29.02
2022-08-17T00:58:53.169Z,29.77
2022-08-17T01:01:23.074Z,33.10
2022-08-17T01:03:57.047Z,29.88
2022-08-17T01:06:30.942Z,32.55
2022-08-17T01:09:02.216Z,31.85
2022-08-17T01:11:33.284Z,37.75
2022-08-17T01:14:04.885Z,34.95
2022-08-17T01:16:34.878Z,36.13
2022-08-17T01:19:12.050Z,30.05
2022-08-17T01:22:00.159Z,37.80
2022-08-17T01:24:31.735Z,30.73
2022-08-17T01:27:10.185Z,30.63
2022-08-17T01:29:45.438Z,36.70
2022-08-17T01:32:15.501Z,32.47
2022-08-17T01:34:50.480Z,35.00
2022-08-17T01:37:28.944Z,34.88
2022-08-17T01:40:05.708Z,35.40
2022-08-17T01:42:43.022Z,37.22
2022-08-17T01:45:18.506Z,36.85
2022-08-17T01:47:48.209Z,36.88
2022-08-17T01:50:23.442Z,35.22
2022-08-17T01:53:01.302Z,39.00
2022-08-17T01:55:39.590Z,39.75
2022-08-17T01:58:09.931Z,39.63
2022-08-17T02:00:59.418Z,40.90
2022-08-17T02:03:32.450Z,36.28
2022-08-17T02:06:02.010Z,42.22
2022-08-17T02:08:39.547Z,35.15
2022-08-17T02:11:23.659Z,34.70
2022-08-17T02:13:57.947Z,34.40
2022-08-17T02:16:37.376Z,37.85
2022-08-17T02:19:11.412Z,31.23
2022-08-17T02:21:44.101Z,36.65
2022-08-17T02:24:58.170Z,35.17
2022-08-17T02:27:10.962Z,31.33
2022-08-17T02:29:40.606Z,34.97
2022-08-17T02:32:28.163Z,33.50
2022-08-17T02:35:00.505Z,32.47
2022-08-17T02:37:31.228Z,32.37
2022-08-17T02:40:00.761Z,27.83
2022-08-17T02:42:34.869Z,31.80
2022-08-17T02:45:06.499Z,33.35
2022-08-17T02:47:36.853Z,31.23
2022-08-17T02:50:09.200Z,33.15
2022-08-17T02:52:43.822Z,32.97
2022-08-17T02:55:34.362Z,28.50
2022-08-17T02:58:06.011Z,32.47
2022-08-17T03:00:38.604Z,31.92
2022-08-17T03:03:09.472Z,30.73
2022-08-17T03:05:41.915Z,35.30
2022-08-17T03:08:13.122Z,40.22
2022-08-17T03:10:43.437Z,32.50
2022-08-17T03:13:15.870Z,38.38
2022-08-17T03:15:47.234Z,39.67
2022-08-17T03:18:25.511Z,36.90
2022-08-17T03:20:59.221Z,41.58
2022-08-17T03:23:30.403Z,40.45
2022-08-17T03:26:00.334Z,39.78
2022-08-17T03:28:31.620Z,38.97
2022-08-17T03:31:00.927Z,42.38
2022-08-17T03:33:30.731Z,39.88
2022-08-17T03:36:00.373Z,39.85
2022-08-17T03:38:29.660Z,40.03
2022-08-17T03:41:09.305Z,39.70
2022-08-17T03:43:40.045Z,38.30
2022-08-17T03:46:35.237Z,38.85
2022-08-17T03:49:23.706Z,37.17
2022-08-17T03:52:10.700Z,36.20
2022-08-17T03:54:58.179Z,39.88
2022-08-17T03:57:28.459Z,47.72
2022-08-17T03:59:59.879Z,39.20
2022-08-17T04:02:32.881Z,40.90
2022-08-17T04:05:02.686Z,36.45
2022-08-17T04:07:33.280Z,36.65
2022-08-17T04:10:02.675Z,38.35
2022-08-17T04:12:47.197Z,35.97
2022-08-17T04:15:19.446Z,38.30
2022-08-17T04:17:49.399Z,33.97
2022-08-17T04:20:22.443Z,36.75
2022-08-17T04:23:02.265Z,35.42
2022-08-17T04:25:33.826Z,31.55
2022-08-17T04:28:04.014Z,34.10
2022-08-17T04:30:40.473Z,33.40
2022-08-17T04:33:14.144Z,37.75
2022-08-17T04:35:47.698Z,32.50
2022-08-17T04:38:20.942Z,33.40
2022-08-17T04:41:08.584Z,32.95
2022-08-17T04:43:40.922Z,32.05
2022-08-17T04:46:15.896Z,31.30
2022-08-17T04:48:50.581Z,37.00
2022-08-17T04:51:23.754Z,33.20
2022-08-17T04:53:56.565Z,33.63
2022-08-17T04:56:27.999Z,44.65
2022-08-17T04:59:01.408Z,32.05
2022-08-17T05:01:37.150Z,35.70
2022-08-17T05:04:32.982Z,40.92
2022-08-17T05:06:58.814Z,35.83
2022-08-17T05:09:28.244Z,34.22
2022-08-17T05:12:01.362Z,37.40
2022-08-17T05:14:32.307Z,42.60
2022-08-17T05:17:07.323Z,30.42
2022-08-17T05:19:41.248Z,32.03
2022-08-17T05:22:10.647Z,32.47
2022-08-17T05:24:43.690Z,34.88
2022-08-17T05:27:23.503Z,35.10
2022-08-17T05:29:52.849Z,35.22
2022-08-17T05:32:39.321Z,36.60
2022-08-17T05:35:10.401Z,30.52
2022-08-17T05:37:39.960Z,34.17
2022-08-17T05:40:10.762Z,35.25
2022-08-17T05:42:40.181Z,30.13
2022-08-17T05:45:11.157Z,33.22
2022-08-17T05:47:42.451Z,34.42
2022-08-17T05:50:25.737Z,35.03
2022-08-17T05:53:07.173Z,31.80
2022-08-17T05:55:46.955Z,30.95
2022-08-17T05:58:26.534Z,32.15
2022-08-17T06:01:09.025Z,36.00
2022-08-17T06:03:50.851Z,32.33
2022-08-17T06:06:34.782Z,32.00
2022-08-17T06:09:26.594Z,35.70
2022-08-17T06:12:14.440Z,30.35
2022-08-17T06:15:04.995Z,33.83
2022-08-17T06:17:35.178Z,33.08
2022-08-17T06:20:11.797Z,32.80
2022-08-17T06:22:47.303Z,35.13
2022-08-17T06:25:20.685Z,33.33
2022-08-17T06:27:55.712Z,48.47
2022-08-17T06:30:29.101Z,29.33
2022-08-17T06:33:25.295Z,30.60
2022-08-17T06:36:09.231Z,30.70
2022-08-17T06:38:53.669Z,31.00
2022-08-17T06:41:36.509Z,29.15
2022-08-17T06:44:42.258Z,29.63
2022-08-17T06:47:28.898Z,30.08
2022-08-17T06:50:11.835Z,24.08
2022-08-17T06:52:55.239Z,27.33
2022-08-17T06:55:34.539Z,26.90
2022-08-17T06:58:16.503Z,29.55
2022-08-17T07:00:49.129Z,29.20
2022-08-17T07:03:30.101Z,32.17
2022-08-17T07:06:05.096Z,30.98
2022-08-17T07:08:56.783Z,32.97
2022-08-17T07:11:33.114Z,34.15
2022-08-17T07:14:31.608Z,33.30
2022-08-17T07:17:07.658Z,37.70
2022-08-17T07:19:41.161Z,38.67
2022-08-17T07:22:27.980Z,40.88
2022-08-17T07:25:01.618Z,39.25
2022-08-17T07:27:37.317Z,41.40
2022-08-17T07:30:11.467Z,44.97
2022-08-17T07:32:45.347Z,46.50
2022-08-17T07:35:21.297Z,49.75
2022-08-17T07:37:54.536Z,49.85
2022-08-17T07:40:35.399Z,53.30
2022-08-17T07:43:24.041Z,50.50
2022-08-17T07:46:32.872Z,47.85
2022-08-17T07:49:23.450Z,49.25
2022-08-17T07:52:24.286Z,48.78
2022-08-17T07:54:51.267Z,46.15
2022-08-17T07:57:37.210Z,46.75
2022-08-17T08:00:32.301Z,46.10
2022-08-17T08:03:17.467Z,44.55
2022-08-17T08:05:57.504Z,48.67
2022-08-17T08:08:33.639Z,50.10
2022-08-17T08:11:08.808Z,53.30
2022-08-17T08:13:43.921Z,53.38
2022-08-17T08:16:29.383Z,55.40
2022-08-17T08:19:01.456Z,57.35
2022-08-17T08:21:44.570Z,56.22
2022-08-17T08:24:49.313Z,51.47
2022-08-17T08:27:32.126Z,45.42
2022-08-17T08:30:10.096Z,48.80
2022-08-17T08:33:04.572Z,46.78
2022-08-17T08:35:41.446Z,45.55
2022-08-17T08:38:25.565Z,45.60
2022-08-17T08:41:19.330Z,44.15
2022-08-17T08:44:03.776Z,49.38
2022-08-17T08:46:44.410Z,46.95
2022-08-17T08:50:05.810Z,50.50
2022-08-17T08:53:01.491Z,47.80
2022-08-17T08:55:45.051Z,47.65
2022-08-17T08:58:32.007Z,49.92
2022-08-17T09:01:22.341Z,46.17
2022-08-17T09:04:24.730Z,48.17
2022-08-17T09:07:12.022Z,47.10
2022-08-17T09:09:59.757Z,53.83
2022-08-17T09:12:37.782Z,44.20
2022-08-17T09:15:15.944Z,55.22
2022-08-17T09:18:14.911Z,54.17
2022-08-17T09:20:56.783Z,55.70
2022-08-17T09:23:34.328Z,52.55
2022-08-17T09:26:22.634Z,55.80
2022-08-17T09:29:00.357Z,55.85
2022-08-17T09:31:47.080Z,56.15
2022-08-17T09:34:33.937Z,55.58
2022-08-17T09:37:20.003Z,63.58
2022-08-17T09:40:00.452Z,56.80
2022-08-17T09:42:38.978Z,57.97
2022-08-17T09:45:29.509Z,57.90
2022-08-17T09:48:08.062Z,52.00
2022-08-17T09:51:04.200Z,63.10
2022-08-17T09:53:38.774Z,61.25
2022-08-17T09:56:33.025Z,67.68
2022-08-17T09:59:38.288Z,60.70
2022-08-17T10:02:41.555Z,62.60
2022-08-17T10:05:18.019Z,62.47
2022-08-17T10:07:56.266Z,74.00
2022-08-17T10:10:37.695Z,60.42
2022-08-17T10:13:27.195Z,68.38
2022-08-17T10:16:07.857Z,68.85
2022-08-17T10:18:53.134Z,75.63
2022-08-17T10:21:42.523Z,72.45
2022-08-17T10:24:36.661Z,75.30
2022-08-17T10:27:14.484Z,75.63
2022-08-17T10:29:51.579Z,76.22
2022-08-17T10:32:32.748Z,79.15
2022-08-17T10:35:34.094Z,79.93
2022-08-17T10:38:31.979Z,60.65
2022-08-17T10:41:17.548Z,79.25
2022-08-17T10:44:37.289Z,71.55
2022-08-17T10:47:05.809Z,75.68
2022-08-17T10:49:36.531Z,70.13
2022-08-17T10:52:50.204Z,81.88
2022-08-17T10:55:21.669Z,77.28
2022-08-17T10:57:54.949Z,85.35
2022-08-17T11:01:05.935Z,85.03
2022-08-17T11:03:35.333Z,79.80
2022-08-17T11:06:19.260Z,85.00
2022-08-17T11:09:29.788Z,86.90
2022-08-17T11:12:21.004Z,87.20
2022-08-17T11:15:23.267Z,81.18
2022-08-17T11:18:11.454Z,83.70
2022-08-17T11:21:21.512Z,81.78
2022-08-17T11:24:16.691Z,82.75
2022-08-17T11:27:02.252Z,79.43
2022-08-17T11:29:38.750Z,100.30
2022-08-17T11:32:28.366Z,88.88
2022-08-17T11:35:23.359Z,82.43
2022-08-17T11:38:15.961Z,82.30
2022-08-17T11:41:14.578Z,96.40
2022-08-17T11:44:14.339Z,86.47
2022-08-17T11:47:29.909Z,82.78
2022-08-17T11:50:54.998Z,80.07
2022-08-17T11:57:22.475Z,73.00
2022-08-17T12:00:01.157Z,83.57
2022-08-17T12:02:48.242Z,85.88
2022-08-17T12:05:35.408Z,89.40
2022-08-17T12:08:19.800Z,80.85
2022-08-17T12:11:05.648Z,59.38
2022-08-17T12:13:44.212Z,72.35
2022-08-17T12:16:17.822Z,85.45
2022-08-17T12:18:53.676Z,56.28
2022-08-17T12:21:46.341Z,55.03
2022-08-17T12:24:55.814Z,52.92
2022-08-17T12:27:59.715Z,58.78
2022-08-17T12:30:25.902Z,58.08
2022-08-17T12:32:55.613Z,59.65
2022-08-17T12:35:33.190Z,61.88
2022-08-17T12:38:31.814Z,64.68
2022-08-17T12:41:25.725Z,63.47
2022-08-17T12:44:02.319Z,60.70
2022-08-17T12:46:48.619Z,74.05
2022-08-17T12:49:28.066Z,62.53
2022-08-17T12:52:14.842Z,64.47
2022-08-17T12:54:53.236Z,74.38
2022-08-17T12:57:26.726Z,53.55
2022-08-17T13:00:00.942Z,53.88
2022-08-17T13:02:47.746Z,57.67
2022-08-17T13:05:25.671Z,59.08
2022-08-17T13:07:56.946Z,72.13
2022-08-17T13:10:33.039Z,59.22
2022-08-17T13:13:06.034Z,48.95
2022-08-17T13:15:44.985Z,65.40
2022-08-17T13:18:42.105Z,70.53
2022-08-17T13:21:26.806Z,41.08
2022-08-17T13:24:03.570Z,36.20
2022-08-17T13:26:38.700Z,32.50
2022-08-17T13:29:10.355Z,31.02
2022-08-17T13:31:52.257Z,37.67
2022-08-17T13:34:44.553Z,30.83
2022-08-17T13:37:34.588Z,37.97
2022-08-17T13:40:30.462Z,34.33
2022-08-17T13:43:03.449Z,32.58
2022-08-17T13:45:38.931Z,34.60
2022-08-17T13:48:14.563Z,36.80
2022-08-17T13:50:47.504Z,36.70
2022-08-17T13:53:27.888Z,34.50
2022-08-17T13:56:02.440Z,37.70
2022-08-17T13:58:36.599Z,36.25
2022-08-17T14:01:31.997Z,36.85
2022-08-17T14:04:06.339Z,37.80
2022-08-17T14:06:51.963Z,38.40
2022-08-17T14:09:26.874Z,43.80
2022-08-17T14:11:58.250Z,40.58
2022-08-17T14:14:31.784Z,41.35
2022-08-17T14:17:01.333Z,41.35
2022-08-17T14:19:30.725Z,45.30
2022-08-17T14:22:01.681Z,41.85
2022-08-17T14:24:33.836Z,44.28
2022-08-17T14:27:05.685Z,42.30
2022-08-17T14:29:37.206Z,48.97
2022-08-17T14:32:18.260Z,48.15
2022-08-17T14:34:49.710Z,50.72
2022-08-17T14:37:19.748Z,48.58
2022-08-17T14:39:49.628Z,48.55
2022-08-17T14:42:18.929Z,51.92
2022-08-17T14:44:52.266Z,58.10
2022-08-17T14:47:24.938Z,57.67
2022-08-17T14:49:56.057Z,48.92
2022-08-17T14:52:25.340Z,65.50
2022-08-17T14:54:57.590Z,44.97
2022-08-17T14:57:34.266Z,50.20
2022-08-17T15:00:08.313Z,49.05
2022-08-17T15:02:48.240Z,61.50
2022-08-17T15:05:20.532Z,60.53
2022-08-17T15:07:50.108Z,46.95
2022-08-17T15:10:20.094Z,40.72
2022-08-17T15:12:51.422Z,40.80
2022-08-17T15:15:24.967Z,33.75
2022-08-17T15:17:54.339Z,38.55
2022-08-17T15:20:27.735Z,49.53
2022-08-17T15:22:59.482Z,32.47
2022-08-17T15:25:34.850Z,37.70
2022-08-17T15:28:04.502Z,32.20
2022-08-17T15:30:37.146Z,38.08
2022-08-17T15:33:06.749Z,38.15
2022-08-17T15:35:39.082Z,42.10
2022-08-17T15:40:45.724Z,38.42
2022-08-17T15:43:27.289Z,45.60
2022-08-17T15:46:10.772Z,51.65
2022-08-17T15:51:16.773Z,52.28
2022-08-17T15:53:48.155Z,52.65
2022-08-17T15:56:18.211Z,55.27
2022-08-17T15:58:50.044Z,52.67
2022-08-17T16:03:01.512Z,54.13
2022-08-17T16:04:26.765Z,52.63
2022-08-17T16:07:01.036Z,76.13
2022-08-17T16:09:30.287Z,55.40
2022-08-17T16:11:59.721Z,56.75
2022-08-17T16:14:33.845Z,55.55
2022-08-17T16:17:40.042Z,52.97
2022-08-17T16:19:56.976Z,42.08
2022-08-17T16:22:34.714Z,42.25
2022-08-17T16:25:06.921Z,41.78
2022-08-17T16:27:36.384Z,43.03
2022-08-17T16:30:08.044Z,45.05
2022-08-17T16:32:38.876Z,47.50
2022-08-17T16:35:12.429Z,53.08
2022-08-17T16:37:45.626Z,55.50
2022-08-17T16:40:16.913Z,52.60
2022-08-17T16:42:49.370Z,70.15
2022-08-17T16:45:24.357Z,66.35
2022-08-17T16:47:59.216Z,65.82
2022-08-17T16:50:28.679Z,70.78
2022-08-17T16:53:06.649Z,67.53
2022-08-17T16:55:36.893Z,99.32
2022-08-17T16:58:08.905Z,69.05
2022-08-17T17:00:38.799Z,81.40
2022-08-17T17:03:19.239Z,96.25
2022-08-17T17:06:08.706Z,88.35
2022-08-17T17:08:44.887Z,103.07
2022-08-17T17:11:19.475Z,88.82
2022-08-17T17:13:57.979Z,83.82
2022-08-17T17:16:38.302Z,97.78
2022-08-17T17:19:18.047Z,98.80
2022-08-17T17:22:15.377Z,97.53
2022-08-17T17:25:02.573Z,93.75
2022-08-17T17:27:41.217Z,102.28
2022-08-17T17:30:25.857Z,102.65
2022-08-17T17:33:00.817Z,90.28
2022-08-17T17:35:36.959Z,92.15
2022-08-17T17:38:13.187Z,99.68
2022-08-17T17:40:45.890Z,102.82
2022-08-17T17:43:38.179Z,97.95
2022-08-17T17:48:57.830Z,96.78
2022-08-17T17:52:09.525Z,82.00
2022-08-17T17:55:04.692Z,93.55
2022-08-17T17:57:55.986Z,102.07
2022-08-17T18:00:31.119Z,88.10
2022-08-17T18:03:25.726Z,88.53
2022-08-17T18:06:25.246Z,96.80
2022-08-17T18:09:19.332Z,86.45
2022-08-17T18:12:23.863Z,91.68
2022-08-17T18:15:21.914Z,88.22
2022-08-17T18:18:37.649Z,98.82
2022-08-17T18:21:16.924Z,96.10
2022-08-17T18:24:00.752Z,94.88
2022-08-17T18:26:44.934Z,104.20
2022-08-17T18:29:35.953Z,92.70
2022-08-17T18:32:31.590Z,96.70
2022-08-17T18:35:18.455Z,99.25
2022-08-17T18:37:51.412Z,100.40
2022-08-17T18:40:37.629Z,95.63
2022-08-17T18:43:15.000Z,96.53
2022-08-17T18:45:49.289Z,104.25
2022-08-17T18:48:30.440Z,104.03
2022-08-17T18:51:39.872Z,91.60
2022-08-17T18:54:20.313Z,97.10
2022-08-17T18:56:58.957Z,102.22
2022-08-17T18:59:39.059Z,96.75
2022-08-17T19:02:39.036Z,115.30
2022-08-17T19:05:29.006Z,125.60
2022-08-17T19:08:20.237Z,103.47
2022-08-17T19:10:54.351Z,92.60
2022-08-17T19:13:32.726Z,102.10
2022-08-17T19:16:14.069Z,108.43
2022-08-17T19:18:52.116Z,90.57
2022-08-17T19:21:26.860Z,100.72
2022-08-17T19:24:06.197Z,98.38
2022-08-17T19:26:54.009Z,94.60
2022-08-17T19:29:38.303Z,99.72
2022-08-17T19:32:10.563Z,93.47
2022-08-17T19:34:44.678Z,95.30
2022-08-17T19:37:26.508Z,100.53
2022-08-17T19:40:24.475Z,96.87
2022-08-17T19:43:16.151Z,90.05
2022-08-17T19:46:02.397Z,93.72
2022-08-17T19:48:48.418Z,95.70
2022-08-17T19:51:28.262Z,99.65
2022-08-17T19:54:06.914Z,86.15
2022-08-17T19:56:48.682Z,95.65
2022-08-17T19:59:27.863Z,102.25
2022-08-17T20:02:24.753Z,93.72
2022-08-17T20:04:58.018Z,90.22
2022-08-17T20:07:38.127Z,92.65
2022-08-17T20:10:12.220Z,95.47
2022-08-17T20:12:44.723Z,100.78
2022-08-17T20:15:25.718Z,90.07
2022-08-17T20:18:02.514Z,111.43
2022-08-17T20:20:46.734Z,108.22
2022-08-17T20:23:37.500Z,101.47
2022-08-17T20:26:19.597Z,100.60
2022-08-17T20:30:01.110Z,102.65
2022-08-17T20:32:33.060Z,90.50
2022-08-17T20:35:24.552Z,99.38
2022-08-17T20:37:59.346Z,89.20
2022-08-17T20:40:33.998Z,94.68
2022-08-17T20:43:46.229Z,93.03
2022-08-17T20:46:53.155Z,103.37
2022-08-17T20:49:33.091Z,95.13
2022-08-17T20:52:08.973Z,96.72
2022-08-17T20:54:51.884Z,93.35
2022-08-17T20:57:48.973Z,99.03
2022-08-17T21:00:45.780Z,98.38
2022-08-17T21:03:57.839Z,89.20
2022-08-17T21:06:27.509Z,87.70
2022-08-17T21:09:20.791Z,102.07
2022-08-17T21:12:05.430Z,99.15
2022-08-17T21:14:56.584Z,104.18
2022-08-17T21:17:44.058Z,94.68
2022-08-17T21:20:33.199Z,98.38
2022-08-17T21:23:33.818Z,97.63
2022-08-17T21:26:30.749Z,93.25
2022-08-17T21:29:30.905Z,100.97
2022-08-17T21:32:24.148Z,90.68
2022-08-17T21:35:28.823Z,96.60
2022-08-17T21:38:05.231Z,91.45
2022-08-17T21:40:36.304Z,95.53
2022-08-17T21:43:26.899Z,102.22
2022-08-17T21:46:05.483Z,97.60
2022-08-17T21:48:45.403Z,104.30
2022-08-17T21:51:23.967Z,99.40
2022-08-17T21:53:56.839Z,102.68
2022-08-17T21:56:30.941Z,112.53
2022-08-17T21:59:06.271Z,103.53
2022-08-17T22:01:37.534Z,99.15
2022-08-17T22:04:20.228Z,106.32
2022-08-17T22:06:57.269Z,91.07
2022-08-17T22:09:31.603Z,91.82
2022-08-17T22:12:07.432Z,80.25
2022-08-17T22:14:51.422Z,90.18
2022-08-17T22:17:26.447Z,81.82
2022-08-17T22:19:59.919Z,89.03
2022-08-17T22:22:56.079Z,76.20
2022-08-17T22:25:26.930Z,83.85
2022-08-17T22:28:00.327Z,67.47
2022-08-17T22:30:36.571Z,85.93
2022-08-17T22:33:36.318Z,91.18
2022-08-17T22:36:29.034Z,84.60
2022-08-17T22:39:02.218Z,88.05
2022-08-17T22:41:54.082Z,81.53
2022-08-17T22:44:29.613Z,81.22
2022-08-17T22:47:11.274Z,94.40
2022-08-17T22:49:53.557Z,81.80
2022-08-17T22:52:34.966Z,76.70
2022-08-17T22:55:32.393Z,80.93
2022-08-17T22:58:20.341Z,79.70
2022-08-17T23:00:51.149Z,82.30
2022-08-17T23:03:25.532Z,76.97
2022-08-17T23:06:06.667Z,79.63
2022-08-17T23:08:43.941Z,74.47
2022-08-17T23:11:14.352Z,76.63
2022-08-17T23:13:44.499Z,79.35
2022-08-17T23:16:14.967Z,85.40
2022-08-17T23:18:48.114Z,76.35
2022-08-17T23:21:26.698Z,75.53
2022-08-17T23:23:59.256Z,77.78
2022-08-17T23:26:30.074Z,82.63
2022-08-17T23:29:02.406Z,87.80
2022-08-17T23:31:34.735Z,85.53
2022-08-17T23:34:09.941Z,74.90
2022-08-17T23:36:39.865Z,70.60
2022-08-17T23:39:09.358Z,77.18
2022-08-17T23:41:41.040Z,90.65
2022-08-17T23:44:10.321Z,87.03
2022-08-17T23:46:39.526Z,89.80
2022-08-17T23:49:10.315Z,83.63
2022-08-17T23:51:42.586Z,82.40
2022-08-17T23:54:19.469Z,85.25
2022-08-17T23:56:51.230Z,79.90
2022-08-17T23:59:22.949Z,85.37
